Time;durP1;ratioP1;P1;durP2;ratioP2;P2;SDS_P1;SDS_P2;PMS_P1;PMS_P2;Temp;Humidity;BMP_temperature;BMP_pressure;BME280_temperature;BME280_humidity;BME280_pressure;Samples;Min_cycle;Max_cycle;Signal;HPM_P1;HPM_P2
2021/12/03 00:02:16;;;;;;;24.30;12.80;;;;;;;-0.33;89.21;97484.97;4890814;28;20604;-73
2021/12/03 00:04:40;;;;;;;17.38;10.50;;;;;;;-0.31;89.14;97488.34;4921984;28;20698;-69
2021/12/03 00:07:06;;;;;;;17.95;12.07;;;;;;;-0.35;89.31;97489.50;4920178;28;20523;-70
2021/12/03 00:09:35;;;;;;;25.42;11.38;;;;;;;-0.29;89.27;97491.72;4904156;28;20070;-71
2021/12/03 00:11:59;;;;;;;17.13;11.18;;;;;;;-0.28;89.27;97489.00;4920724;28;20088;-69
2021/12/03 00:14:24;;;;;;;15.88;10.57;;;;;;;-0.24;89.34;97495.75;4938224;28;20050;-75
2021/12/03 00:16:49;;;;;;;16.55;10.00;;;;;;;-0.24;89.51;97493.13;4907457;28;20034;-68
2021/12/03 00:19:13;;;;;;;19.08;10.68;;;;;;;-0.25;89.26;97491.44;4924584;28;20071;-77
2021/12/03 00:21:38;;;;;;;11.82;7.22;;;;;;;-0.13;89.11;97505.53;4937596;28;20050;-70
2021/12/03 00:24:03;;;;;;;16.08;10.48;;;;;;;-0.16;89.05;97495.25;4937590;28;20047;-73
2021/12/03 00:26:28;;;;;;;17.45;10.05;;;;;;;-0.20;89.39;97504.22;4888488;28;20042;-72
2021/12/03 00:28:53;;;;;;;16.88;10.23;;;;;;;-0.20;88.97;97493.75;4919782;28;20042;-68
2021/12/03 00:31:18;;;;;;;15.55;9.88;;;;;;;-0.13;89.20;97489.84;4919976;28;20074;-71
2021/12/03 00:33:43;;;;;;;14.73;9.88;;;;;;;-0.12;88.89;97488.91;4919636;28;20050;-70
2021/12/03 00:36:09;;;;;;;16.92;10.05;;;;;;;-0.19;88.79;97487.59;4940163;28;20046;-70
2021/12/03 00:38:39;;;;;;;16.25;9.90;;;;;;;-0.15;88.90;97487.31;4908758;28;20043;-75
2021/12/03 00:41:06;;;;;;;15.07;10.60;;;;;;;-0.21;89.16;97476.34;4922347;28;20077;-72
2021/12/03 00:43:31;;;;;;;20.52;10.30;;;;;;;-0.19;89.32;97484.97;4937931;28;20565;-73
2021/12/03 00:46:04;;;;;;;19.02;10.43;;;;;;;-0.12;89.15;97479.28;4938875;28;20564;-71
2021/12/03 00:48:28;;;;;;;13.55;8.73;;;;;;;-0.07;89.01;97473.72;4937749;28;20054;-72
2021/12/03 00:50:53;;;;;;;19.45;10.43;;;;;;;-0.07;88.92;97469.31;4920322;28;20133;-72
2021/12/03 00:53:18;;;;;;;17.95;9.15;;;;;;;-0.05;89.01;97472.69;4903427;28;20068;-73
2021/12/03 00:55:42;;;;;;;15.60;10.13;;;;;;;-0.10;89.09;97473.91;4919803;28;20046;-72
2021/12/03 00:58:07;;;;;;;14.15;8.80;;;;;;;-0.10;88.92;97490.47;4919460;28;20162;-73
2021/12/03 01:00:32;;;;;;;17.17;10.02;;;;;;;-0.07;89.20;97499.91;4919259;28;20070;-75
2021/12/03 01:02:59;;;;;;;16.00;10.82;;;;;;;-0.06;88.95;97496.34;4919514;28;20133;-73
2021/12/03 01:05:25;;;;;;;16.63;10.93;;;;;;;-0.01;88.73;97495.16;4938141;28;20039;-71
2021/12/03 01:07:50;;;;;;;14.82;9.55;;;;;;;-0.01;88.96;97491.69;4920510;28;20050;-75
2021/12/03 01:10:15;;;;;;;12.88;7.95;;;;;;;0.03;88.65;97490.53;4940166;28;20115;-72
2021/12/03 01:12:40;;;;;;;18.63;11.13;;;;;;;0.00;88.75;97502.03;4920958;28;20054;-74
2021/12/03 01:15:08;;;;;;;15.63;9.23;;;;;;;0.04;88.77;97497.47;4922781;28;20088;-72
2021/12/03 01:17:33;;;;;;;16.58;10.57;;;;;;;0.03;88.72;97497.56;4897645;28;20066;-72
2021/12/03 01:19:59;;;;;;;15.30;8.82;;;;;;;0.04;88.63;97505.31;4933938;29;20532;-74
2021/12/03 01:22:24;;;;;;;17.77;11.55;;;;;;;-0.01;88.87;97495.16;4931053;29;20110;-73
2021/12/03 01:24:48;;;;;;;16.88;9.65;;;;;;;-0.04;88.72;97497.94;4913558;29;20051;-73
2021/12/03 01:27:13;;;;;;;17.77;10.13;;;;;;;-0.02;88.81;97508.34;4909601;29;20059;-74
2021/12/03 01:29:38;;;;;;;17.35;11.18;;;;;;;0.08;88.45;97508.59;4924117;29;20051;-73
2021/12/03 01:32:03;;;;;;;16.83;10.02;;;;;;;0.08;88.68;97512.06;4904207;29;20047;-72
2021/12/03 01:34:27;;;;;;;18.65;12.50;;;;;;;0.03;88.71;97506.25;4876948;29;20061;-74
2021/12/03 01:36:52;;;;;;;14.88;9.93;;;;;;;0.00;88.75;97502.03;4924811;29;20094;-75
2021/12/03 01:39:17;;;;;;;16.30;9.98;;;;;;;-0.05;88.41;97498.03;4923880;29;20043;-76
2021/12/03 01:41:42;;;;;;;13.43;8.38;;;;;;;0.08;88.48;97509.44;4907048;29;20051;-73
2021/12/03 01:44:08;;;;;;;16.08;9.52;;;;;;;0.11;88.81;97511.88;4905202;29;20047;-76
2021/12/03 01:46:33;;;;;;;21.98;10.70;;;;;;;0.12;88.30;97510.91;4905496;29;20055;-72
2021/12/03 01:48:59;;;;;;;15.05;8.50;;;;;;;0.07;88.53;97518.22;4889353;29;20043;-72
2021/12/03 01:51:25;;;;;;;17.77;11.68;;;;;;;-0.05;88.31;97526.84;4921571;29;20490;-74
2021/12/03 01:53:50;;;;;;;16.05;9.23;;;;;;;-0.05;88.21;97538.16;4921256;29;20105;-69
2021/12/03 01:56:16;;;;;;;15.95;10.38;;;;;;;-0.02;88.52;97540.59;4922595;29;20050;-75
2021/12/03 01:58:42;;;;;;;20.38;12.73;;;;;;;-0.02;88.77;97529.28;4908786;29;20054;-78
2021/12/03 02:01:11;;;;;;;17.40;10.75;;;;;;;-0.02;89.01;97532.75;4925728;29;20043;-78
2021/12/03 02:03:38;;;;;;;18.05;11.85;;;;;;;0.02;88.78;97538.63;4907969;29;20049;-74
2021/12/03 02:06:06;;;;;;;18.58;10.38;;;;;;;0.09;88.78;97537.31;4924684;29;20043;-71
2021/12/03 02:08:32;;;;;;;14.77;9.00;;;;;;;0.14;88.60;97540.47;4925538;29;20390;-77
2021/12/03 02:10:57;;;;;;;14.38;8.18;;;;;;;0.22;88.42;97548.72;4907159;29;20038;-77
2021/12/03 02:13:21;;;;;;;13.20;8.77;;;;;;;0.27;88.23;97544.00;4909677;29;20054;-77
2021/12/03 02:15:47;;;;;;;17.05;10.25;;;;;;;0.28;88.06;97545.69;4893142;29;20039;-71
2021/12/03 02:18:14;;;;;;;18.52;9.68;;;;;;;0.26;87.99;97538.84;4924842;29;20094;-75
2021/12/03 02:20:43;;;;;;;17.45;11.60;;;;;;;0.28;87.45;97550.94;4908204;29;20486;-74
2021/12/03 02:23:07;;;;;;;15.50;10.63;;;;;;;0.22;87.31;97553.94;4924681;29;20051;-72
2021/12/03 02:25:32;;;;;;;14.70;8.13;;;;;;;0.19;87.17;97548.88;4920191;29;20050;-74
2021/12/03 02:27:57;;;;;;;8.57;5.50;;;;;;;0.34;87.53;97554.91;4889581;29;20054;-73
2021/12/03 02:30:23;;;;;;;14.75;9.90;;;;;;;0.26;87.20;97555.41;4920658;28;20169;-72
2021/12/03 02:32:49;;;;;;;16.65;10.07;;;;;;;0.22;87.16;97560.97;4904098;29;20057;-71
2021/12/03 02:35:14;;;;;;;19.38;11.02;;;;;;;0.20;87.47;97555.81;4920512;29;20075;-72
2021/12/03 02:37:39;;;;;;;11.75;7.55;;;;;;;0.34;87.21;97552.31;4920814;29;20129;-73
2021/12/03 02:40:06;;;;;;;17.75;10.10;;;;;;;0.34;87.40;97541.81;4920883;29;20071;-72
2021/12/03 02:42:31;;;;;;;17.42;10.07;;;;;;;0.30;86.94;97549.06;4902859;29;20130;-74
2021/12/03 02:44:56;;;;;;;17.25;11.38;;;;;;;0.39;87.13;97562.50;4920796;29;20182;-76
2021/12/03 02:47:20;;;;;;;17.65;9.85;;;;;;;0.34;87.05;97553.13;4887894;29;20477;-78
2021/12/03 02:49:45;;;;;;;23.35;11.27;;;;;;;0.34;86.97;97550.53;4920429;29;20046;-74
2021/12/03 02:52:10;;;;;;;19.10;11.65;;;;;;;0.37;86.54;97557.34;4886660;29;20054;-72
2021/12/03 02:54:36;;;;;;;13.52;9.15;;;;;;;0.39;86.71;97565.13;4901865;29;20047;-71
2021/12/03 02:57:02;;;;;;;17.58;9.45;;;;;;;0.43;86.54;97556.97;4901878;29;20490;-71
2021/12/03 02:59:27;;;;;;;17.75;10.20;;;;;;;0.48;86.58;97569.78;4903081;28;20418;-69
2021/12/03 03:01:52;;;;;;;21.17;11.10;;;;;;;0.47;86.32;97576.78;4904545;28;20436;-65
2021/12/03 03:04:16;;;;;;;19.55;11.80;;;;;;;0.62;86.42;97567.13;4920996;28;20515;-69
2021/12/03 03:06:41;;;;;;;22.63;11.60;;;;;;;0.59;85.93;97575.16;4938601;28;20532;-68
2021/12/03 03:09:11;;;;;;;18.55;10.80;;;;;;;0.57;86.16;97577.88;4915829;28;20050;-67
2021/12/03 03:11:36;;;;;;;15.35;9.13;;;;;;;0.58;85.84;97578.72;4918763;29;20449;-66
2021/12/03 03:14:01;;;;;;;17.60;10.38;;;;;;;0.64;85.60;97591.47;4918473;29;20449;-69
2021/12/03 03:16:26;;;;;;;21.05;12.10;;;;;;;0.58;85.55;97576.94;4932043;28;20049;-67
2021/12/03 03:18:51;;;;;;;19.70;9.70;;;;;;;0.60;85.39;97598.66;4931654;28;20066;-67
2021/12/03 03:21:16;;;;;;;18.80;10.10;;;;;;;0.70;85.55;97607.63;4926002;28;20054;-68
2021/12/03 03:23:41;;;;;;;20.65;10.10;;;;;;;0.68;85.59;97611.28;4910979;28;20503;-67
2021/12/03 03:26:06;;;;;;;16.52;9.80;;;;;;;0.80;85.48;97618.34;4918588;29;20605;-66
2021/12/03 03:28:31;;;;;;;21.80;13.48;;;;;;;0.60;85.32;97606.53;4918234;29;20114;-67
2021/12/03 03:30:59;;;;;;;19.70;11.68;;;;;;;0.65;85.38;97606.25;4918441;29;20039;-65
2021/12/03 03:33:24;;;;;;;21.58;10.77;;;;;;;0.70;85.13;97591.06;4885792;28;20592;-68
2021/12/03 03:35:48;;;;;;;19.92;11.88;;;;;;;0.67;85.32;97583.41;4919242;28;20520;-67
2021/12/03 03:38:15;;;;;;;19.60;10.68;;;;;;;0.65;85.10;97588.75;4920967;28;20098;-68
2021/12/03 03:40:42;;;;;;;14.98;9.63;;;;;;;0.60;85.22;97582.09;4918662;28;20039;-66
2021/12/03 03:43:07;;;;;;;21.33;11.80;;;;;;;0.48;85.21;97601.22;4918825;29;20102;-70
2021/12/03 03:45:33;;;;;;;16.27;11.23;;;;;;;0.34;85.78;97595.06;4901598;29;20042;-71
2021/12/03 03:47:58;;;;;;;25.92;14.15;;;;;;;0.24;86.04;97596.59;4901305;29;20162;-67
2021/12/03 03:50:24;;;;;;;17.08;9.82;;;;;;;0.29;86.14;97597.16;4885380;29;20130;-68
2021/12/03 03:52:51;;;;;;;21.85;12.35;;;;;;;0.26;86.36;97607.81;4918701;29;20049;-71
2021/12/03 03:55:17;;;;;;;17.50;12.18;;;;;;;0.30;86.71;97608.47;4885842;29;20572;-70
2021/12/03 03:57:43;;;;;;;20.38;11.40;;;;;;;0.34;86.46;97612.56;4919617;29;20506;-68
2021/12/03 04:00:12;;;;;;;20.65;13.25;;;;;;;0.41;86.32;97607.81;4918807;29;20925;-69
2021/12/03 04:02:37;;;;;;;19.40;11.38;;;;;;;0.47;86.16;97615.28;4918605;29;20043;-68
2021/12/03 04:05:02;;;;;;;18.05;10.52;;;;;;;0.49;86.19;97618.63;4919308;29;20098;-68
2021/12/03 04:07:27;;;;;;;12.75;8.30;;;;;;;0.66;86.09;97613.19;4918777;29;20047;-69
2021/12/03 04:09:51;;;;;;;19.90;11.27;;;;;;;0.65;85.62;97620.22;4918538;29;20042;-68
2021/12/03 04:12:16;;;;;;;21.70;9.57;;;;;;;0.71;85.37;97618.97;4900713;29;20051;-67
2021/12/03 04:14:41;;;;;;;16.80;9.68;;;;;;;0.82;85.57;97618.28;4900875;29;20035;-69
2021/12/03 04:17:06;;;;;;;17.42;10.32;;;;;;;0.76;84.82;97629.16;4900741;29;20134;-69
2021/12/03 04:19:31;;;;;;;16.65;9.95;;;;;;;0.75;84.70;97625.69;4900504;29;20055;-69
2021/12/03 12:22:31;;;;;;;9.68;5.07;;;;;;;1.86;75.51;97886.25;4732271;30;20079;-68
2021/12/03 12:45:12;;;;;;;10.27;6.75;;;;;;;1.78;75.65;97851.75;4915896;29;20047;-71
2021/12/03 13:45:53;;;;;;;15.60;9.32;;;;;;;1.59;76.44;97822.34;4812349;29;20072;-77
2021/12/03 14:46:04;;;;;;;17.70;8.90;;;;;;;0.64;81.91;97801.22;4847573;29;20044;-75
2021/12/03 14:56:38;;;;;;;19.17;9.35;;;;;;;0.60;81.80;97795.31;4879308;29;20051;-74
2021/12/03 14:59:11;;;;;;;17.33;10.80;;;;;;;0.45;82.48;97784.94;4903744;29;20118;-75
2021/12/03 15:01:58;;;;;;;17.17;10.70;;;;;;;0.46;82.16;97787.44;4920023;29;20557;-74
2021/12/03 15:07:35;;;;;;;14.20;7.20;;;;;;;0.54;82.72;97779.97;4921411;29;20610;-74
2021/12/03 15:09:53;;;;;;;14.25;9.80;;;;;;;0.44;82.72;97778.00;4884726;29;20051;-78
2021/12/03 16:10:33;;;;;;;21.92;13.98;;;;;;;0.23;85.69;97725.91;4936537;28;20046;-76
2021/12/03 16:45:18;;;;;;;21.17;12.02;;;;;;;0.32;86.38;97701.81;4919481;29;20043;-73
2021/12/03 16:52:33;;;;;;;16.63;10.88;;;;;;;0.42;87.11;97696.00;4937754;28;20046;-72
2021/12/03 16:55:00;;;;;;;19.23;12.50;;;;;;;0.47;87.15;97710.47;4920259;28;20058;-73
2021/12/03 16:57:32;;;;;;;20.67;12.85;;;;;;;0.45;87.08;97701.06;4937731;28;20402;-72
2021/12/03 17:00:01;;;;;;;16.85;11.35;;;;;;;0.52;87.46;97676.97;4919653;28;20051;-72
2021/12/03 17:02:44;;;;;;;21.92;11.68;;;;;;;0.51;86.68;97679.69;4903808;28;20049;-72
2021/12/03 17:16:20;;;;;;;13.77;9.45;;;;;;;0.64;86.93;97686.69;4917575;29;20047;-74
2021/12/03 17:32:16;;;;;;;17.27;9.68;;;;;;;0.72;86.78;97680.97;4900243;29;20422;-72
2021/12/03 18:00:21;;;;;;;12.60;8.85;;;;;;;0.76;87.57;97663.25;4917598;28;20086;-72
2021/12/03 18:02:48;;;;;;;14.43;9.00;;;;;;;0.76;87.65;97651.00;4920465;29;20491;-77
2021/12/03 18:05:30;;;;;;;13.88;8.30;;;;;;;0.76;87.39;97658.84;4920623;29;20395;-76
2021/12/03 18:51:08;;;;;;;15.38;8.68;;;;;;;0.46;87.60;97702.72;4921628;29;20051;-74
2021/12/03 18:56:19;;;;;;;11.25;7.43;;;;;;;0.53;87.58;97707.50;4902245;29;20051;-71
2021/12/03 18:58:57;;;;;;;11.75;7.50;;;;;;;0.53;87.85;97709.28;4887565;29;20130;-72
2021/12/03 19:01:28;;;;;;;11.85;7.90;;;;;;;0.57;87.56;97719.47;4902337;29;20066;-72
2021/12/03 19:06:29;;;;;;;15.52;8.70;;;;;;;0.44;87.14;97708.06;4902157;29;20045;-73
2021/12/03 19:09:02;;;;;;;9.93;7.13;;;;;;;0.43;86.77;97703.75;4902028;29;20802;-73
2021/12/03 19:11:43;;;;;;;11.43;6.75;;;;;;;0.51;87.28;97705.91;4919133;28;20382;-73
2021/12/03 19:14:08;;;;;;;10.45;7.25;;;;;;;0.49;87.25;97698.13;4902615;29;20138;-73
2021/12/03 19:16:34;;;;;;;10.00;7.22;;;;;;;0.46;87.05;97707.94;4919402;29;20107;-72
2021/12/03 19:19:00;;;;;;;11.75;7.30;;;;;;;0.46;87.41;97707.94;4919999;29;20038;-74
2021/12/03 19:21:27;;;;;;;12.27;7.63;;;;;;;0.51;87.46;97708.53;4920102;29;20053;-75
2021/12/03 19:23:58;;;;;;;12.32;7.25;;;;;;;0.44;87.01;97709.84;4902806;29;20612;-73
2021/12/03 19:26:24;;;;;;;10.63;7.18;;;;;;;0.36;86.96;97702.44;4919568;29;20069;-72
2021/12/03 19:28:50;;;;;;;9.82;7.30;;;;;;;0.40;87.38;97713.59;4902255;29;20057;-72
2021/12/03 19:31:17;;;;;;;9.70;6.60;;;;;;;0.39;87.23;97709.28;4919759;29;20093;-72
2021/12/03 19:33:43;;;;;;;7.32;6.03;;;;;;;0.48;87.36;97711.31;4885980;29;20050;-73
2021/12/03 19:36:10;;;;;;;9.77;6.90;;;;;;;0.42;87.41;97709.09;4870706;29;20047;-73
2021/12/03 19:38:38;;;;;;;9.50;6.88;;;;;;;0.43;87.24;97713.41;4925688;28;20037;-73
2021/12/03 19:41:12;;;;;;;9.38;6.78;;;;;;;0.44;87.62;97709.84;4910563;28;20391;-73
2021/12/03 19:43:52;;;;;;;16.13;6.75;;;;;;;0.43;86.82;97713.41;4909604;28;20074;-72
2021/12/03 19:46:20;;;;;;;9.25;6.43;;;;;;;0.47;86.99;97709.63;4926079;28;20041;-72
2021/12/03 19:51:35;;;;;;;9.63;6.40;;;;;;;0.41;87.21;97715.28;4926140;28;20046;-73
2021/12/03 19:54:01;;;;;;;9.50;6.25;;;;;;;0.35;86.69;97719.09;4898029;28;20050;-73
2021/12/03 19:56:29;;;;;;;7.70;5.65;;;;;;;0.42;86.71;97720.44;4934569;28;20478;-72
2021/12/03 19:58:58;;;;;;;8.13;5.68;;;;;;;0.34;86.38;97715.63;4935235;28;20781;-73
2021/12/03 20:01:24;;;;;;;8.40;5.05;;;;;;;0.33;86.34;97721.00;4910597;28;20491;-72
2021/12/03 20:03:51;;;;;;;8.20;5.53;;;;;;;0.25;86.47;97723.22;4909233;28;20039;-72
2021/12/03 20:06:18;;;;;;;9.00;6.70;;;;;;;0.24;86.50;97725.00;4926802;28;20057;-73
2021/12/03 20:08:42;;;;;;;8.95;5.15;;;;;;;0.26;86.44;97724.91;4888172;29;20043;-73
2021/12/03 20:11:09;;;;;;;9.35;6.53;;;;;;;0.21;86.51;97730.44;4905260;29;20155;-73
2021/12/03 20:13:34;;;;;;;7.88;5.28;;;;;;;0.18;86.50;97714.91;4921399;29;20043;-74
2021/12/03 20:20:49;;;;;;;8.77;5.82;;;;;;;0.13;86.67;97726.56;4921916;29;20450;-75
2021/12/03 20:23:32;;;;;;;7.60;5.13;;;;;;;0.18;86.50;97729.78;4917767;28;20090;-72
2021/12/03 20:28:44;;;;;;;8.00;4.95;;;;;;;0.15;86.21;97733.41;4901035;29;20147;-71
2021/12/03 20:31:10;;;;;;;8.00;4.63;;;;;;;0.14;85.68;97736.97;4918747;29;20062;-74
2021/12/03 20:38:50;;;;;;;21.55;6.45;;;;;;;0.03;85.80;97730.69;4901293;29;20043;-73
2021/12/03 20:41:26;;;;;;;7.60;5.57;;;;;;;0.05;85.45;97750.63;4918224;29;20100;-73
2021/12/03 20:54:34;;;;;;;8.90;5.80;;;;;;;0.09;84.53;97752.13;4843894;29;20127;-76
2021/12/03 21:08:28;;;;;;;7.38;5.03;;;;;;;0.02;84.75;97757.81;4788735;29;20544;-73
2021/12/03 21:11:02;;;;;;;7.68;5.55;;;;;;;-0.02;85.00;97792.06;4802152;29;20068;-74
2021/12/03 21:13:38;;;;;;;7.85;4.55;;;;;;;0.03;84.86;97754.25;4788359;29;20058;-74
2021/12/03 21:16:15;;;;;;;10.00;5.60;;;;;;;0.04;84.88;97754.16;4790125;29;20049;-75
2021/12/03 21:21:11;;;;;;;8.45;5.20;;;;;;;-0.06;84.49;97758.25;4784848;29;20077;-72
2021/12/03 21:23:43;;;;;;;9.57;5.40;;;;;;;-0.07;84.50;97754.81;4794150;29;20098;-72
2021/12/03 21:26:11;;;;;;;6.40;4.80;;;;;;;0.06;84.57;97756.69;4839444;29;20045;-72
2021/12/03 21:28:44;;;;;;;14.55;6.32;;;;;;;-0.10;83.97;97769.84;4838870;29;20068;-75
2021/12/03 21:41:57;;;;;;;;;;;;;;;-0.01;83.59;97751.00;4861566;29;20057;-72
2021/12/03 21:44:22;;;;;;;;;;;;;;;0.03;83.44;97755.09;4846526;29;19942;-73
2021/12/03 21:46:47;;;;;;;7.30;5.10;;;;;;;-0.07;83.52;97746.09;4861484;29;19927;-74
2021/12/03 21:49:12;;;;;;;7.75;5.30;;;;;;;-0.13;83.32;97742.09;4846426;29;20056;-71
2021/12/03 21:51:38;;;;;;;8.60;5.30;;;;;;;-0.16;83.25;97751.88;4861655;29;20055;-72
2021/12/03 21:54:03;;;;;;;7.55;5.18;;;;;;;-0.12;83.31;97748.16;4846147;29;20147;-71
2021/12/03 21:56:30;;;;;;;8.52;6.35;;;;;;;-0.25;82.95;97749.81;4861656;29;20103;-70
2021/12/03 21:58:55;;;;;;;9.15;5.75;;;;;;;-0.24;83.28;97749.72;4862062;29;20543;-71
2021/12/03 22:01:20;;;;;;;7.00;4.65;;;;;;;-0.21;82.75;97746.06;4830414;29;20411;-70
2021/12/03 22:03:46;;;;;;;9.35;5.07;;;;;;;-0.27;83.07;97752.50;4846227;29;20053;-71
2021/12/03 22:06:10;;;;;;;8.77;5.78;;;;;;;-0.32;83.12;97753.69;4845826;29;20064;-71
2021/12/03 22:08:35;;;;;;;9.07;6.55;;;;;;;-0.44;83.01;97752.63;4830183;29;20048;-71
2021/12/03 22:11:01;;;;;;;8.85;5.15;;;;;;;-0.45;83.47;97761.41;4845721;29;20491;-71
2021/12/03 22:13:25;;;;;;;8.63;5.20;;;;;;;-0.38;83.42;97752.28;4828406;29;20854;-70
2021/12/03 22:15:57;;;;;;;6.95;4.85;;;;;;;-0.35;83.54;97761.75;4843523;29;20448;-72
2021/12/03 22:18:26;;;;;;;9.07;5.90;;;;;;;-0.48;83.04;97756.38;4859949;28;20565;-72
2021/12/03 22:20:52;;;;;;;7.50;4.93;;;;;;;-0.48;83.14;97756.38;4896980;28;20043;-71
2021/12/03 22:23:18;;;;;;;7.75;5.63;;;;;;;-0.60;83.12;97757.91;4927877;28;20047;-72
2021/12/03 22:25:43;;;;;;;8.20;6.13;;;;;;;-0.69;82.89;97754.97;4903472;28;20042;-71
2021/12/03 22:28:08;;;;;;;8.32;6.22;;;;;;;-0.74;82.97;97758.69;4891764;28;20505;-70
2021/12/03 22:30:39;;;;;;;7.85;5.20;;;;;;;-0.73;83.07;97763.00;4927550;28;20039;-73
2021/12/03 22:33:04;;;;;;;8.75;5.90;;;;;;;-0.73;83.13;97765.59;4909826;28;20055;-72
2021/12/03 22:35:29;;;;;;;10.90;5.63;;;;;;;-0.81;83.13;97766.97;4929298;28;20117;-71
2021/12/03 22:37:53;;;;;;;11.48;6.07;;;;;;;-0.80;83.22;97774.72;4910935;28;20908;-71
2021/12/03 22:40:18;;;;;;;7.55;5.13;;;;;;;-0.72;83.58;97766.44;4927715;28;20038;-71
2021/12/03 22:42:43;;;;;;;7.22;5.47;;;;;;;-0.66;83.77;97762.63;4906813;29;20039;-71
2021/12/03 22:45:11;;;;;;;8.07;5.38;;;;;;;-0.62;83.50;97756.31;4919817;29;20130;-71
2021/12/03 22:47:36;;;;;;;7.45;5.28;;;;;;;-0.61;83.25;97774.53;4901075;29;20054;-73
2021/12/03 22:52:30;;;;;;;8.43;4.90;;;;;;;-0.52;82.66;97771.41;4932704;28;20078;-72
2021/12/03 22:54:55;;;;;;;9.30;5.22;;;;;;;-0.52;82.48;97779.25;4921713;28;20054;-71
2021/12/03 22:57:21;;;;;;;8.75;5.22;;;;;;;-0.56;82.07;97785.56;4921144;28;20050;-71
2021/12/03 22:59:47;;;;;;;8.18;5.70;;;;;;;-0.59;81.63;97777.91;4897241;28;20123;-71
2021/12/03 23:02:15;;;;;;;6.97;4.63;;;;;;;-0.55;81.00;97779.41;4895443;28;20042;-71
2021/12/03 23:04:40;;;;;;;8.13;4.65;;;;;;;-0.65;79.88;97786.09;4910214;28;20077;-71
2021/12/03 23:07:06;;;;;;;7.50;3.85;;;;;;;-0.50;80.20;97789.63;4911504;28;20035;-72
2021/12/03 23:09:32;;;;;;;6.05;4.63;;;;;;;-0.56;79.92;97785.56;4929216;28;20058;-72
2021/12/03 23:12:02;;;;;;;7.18;4.75;;;;;;;-0.53;79.91;97788.03;4893415;28;20042;-72
2021/12/03 23:14:30;;;;;;;6.07;4.10;;;;;;;-0.39;80.25;97788.09;4936306;28;20501;-74
2021/12/03 23:16:55;;;;;;;5.18;3.97;;;;;;;-0.49;79.30;97799.19;4908451;29;20149;-75
2021/12/03 23:19:21;;;;;;;8.57;4.97;;;;;;;-0.58;78.60;97799.69;4906175;28;20091;-74
2021/12/03 23:21:46;;;;;;;8.13;4.38;;;;;;;-0.55;78.86;97792.50;4918429;28;20070;-72
2021/12/03 23:24:11;;;;;;;6.95;4.40;;;;;;;-0.53;78.81;97795.03;4904994;28;20078;-75
2021/12/03 23:26:37;;;;;;;7.47;4.13;;;;;;;-0.51;78.79;97796.63;4918674;28;20050;-75
2021/12/03 23:29:03;;;;;;;8.95;4.63;;;;;;;-0.54;78.81;97794.19;4929736;28;20117;-75
2021/12/03 23:31:28;;;;;;;7.25;4.82;;;;;;;-0.85;77.69;97789.81;4936116;28;20050;-74
2021/12/03 23:33:53;;;;;;;7.72;3.95;;;;;;;-1.12;76.78;97778.25;4920937;28;20038;-71
2021/12/03 23:36:17;;;;;;;6.47;4.00;;;;;;;-1.04;77.65;97794.38;4921163;28;20163;-71
2021/12/03 23:38:44;;;;;;;6.93;4.32;;;;;;;-1.30;77.14;97787.94;4938249;28;20536;-71
2021/12/03 23:41:08;;;;;;;6.22;4.20;;;;;;;-1.35;77.34;97789.09;4935772;28;20046;-74
2021/12/03 23:43:33;;;;;;;7.35;3.97;;;;;;;-1.39;77.40;97790.19;4920099;28;20038;-66
2021/12/03 23:45:58;;;;;;;7.43;5.07;;;;;;;-1.48;76.85;97789.78;4915475;28;20505;-71
2021/12/03 23:48:23;;;;;;;4.78;3.63;;;;;;;-1.49;77.06;97787.22;4926469;28;20035;-72
2021/12/03 23:50:47;;;;;;;4.97;3.42;;;;;;;-1.52;77.28;97787.38;4879126;28;20051;-68
2021/12/03 23:53:12;;;;;;;9.52;4.50;;;;;;;-1.56;77.42;97799.75;4907756;28;20030;-72
2021/12/03 23:55:38;;;;;;;3.90;2.78;;;;;;;-1.35;78.37;97795.16;4927879;28;20046;-70
2021/12/03 23:58:04;;;;;;;5.05;3.63;;;;;;;-1.38;77.84;97795.34;4908198;28;20035;-73
